Terminal Aerodrome Forecast
Issued by NWS Shreveport, LA

Home | Current Version | Previous Version | Text Only | Print | Product List | Glossary On
Versions: 1 2 3 4 5 6 7 8 9 10 11 12 13 14
000
FTUS44 KSHV 282300 CCA
TAFSHV
TAF COR
KSHV 282321Z 2900/2924 VRB03KT P6SM VCTS SCT050CB SCT250
     FM290200 VRB03KT P6SM SCT250
     FM291600 16009KT P6SM SCT050
     FM291800 16010KT P6SM VCTS BKN050CB=

USA.gov is the U.S. government's official web portal to all federal, state and local government web resources and services.